sensor_id;sensor_type;location;lat;lon;timestamp;P1;durP1;ratioP1;P2;durP2;ratioP2
44832;SDS011;30569;51.252;9.830;2023-08-30T00:00:13;4.05;;;2.13;;
44832;SDS011;30569;51.252;9.830;2023-08-30T00:02:39;3.83;;;1.75;;
44832;SDS011;30569;51.252;9.830;2023-08-30T00:05:04;5.20;;;1.75;;
44832;SDS011;30569;51.252;9.830;2023-08-30T00:07:30;5.05;;;1.70;;
44832;SDS011;30569;51.252;9.830;2023-08-30T00:09:56;5.95;;;2.22;;
44832;SDS011;30569;51.252;9.830;2023-08-30T00:12:23;4.03;;;1.90;;
44832;SDS011;30569;51.252;9.830;2023-08-30T00:14:49;3.97;;;1.88;;
44832;SDS011;30569;51.252;9.830;2023-08-30T00:17:15;4.65;;;2.08;;
44832;SDS011;30569;51.252;9.830;2023-08-30T00:19:40;4.07;;;1.75;;
44832;SDS011;30569;51.252;9.830;2023-08-30T00:22:06;3.95;;;1.98;;
44832;SDS011;30569;51.252;9.830;2023-08-30T00:24:34;3.70;;;1.80;;
44832;SDS011;30569;51.252;9.830;2023-08-30T00:27:01;5.65;;;2.08;;
44832;SDS011;30569;51.252;9.830;2023-08-30T00:29:27;4.05;;;2.10;;
44832;SDS011;30569;51.252;9.830;2023-08-30T00:31:53;8.25;;;1.83;;
44832;SDS011;30569;51.252;9.830;2023-08-30T00:34:19;3.75;;;1.92;;
44832;SDS011;30569;51.252;9.830;2023-08-30T00:36:45;3.72;;;1.95;;
44832;SDS011;30569;51.252;9.830;2023-08-30T00:39:10;7.22;;;2.25;;
44832;SDS011;30569;51.252;9.830;2023-08-30T00:41:36;5.10;;;2.20;;
44832;SDS011;30569;51.252;9.830;2023-08-30T00:44:01;3.83;;;1.90;;
44832;SDS011;30569;51.252;9.830;2023-08-30T00:46:27;4.18;;;1.80;;
44832;SDS011;30569;51.252;9.830;2023-08-30T00:48:53;4.68;;;2.15;;
44832;SDS011;30569;51.252;9.830;2023-08-30T00:51:18;4.88;;;2.10;;
44832;SDS011;30569;51.252;9.830;2023-08-30T00:53:45;8.50;;;2.20;;
44832;SDS011;30569;51.252;9.830;2023-08-30T00:56:11;7.13;;;2.28;;
44832;SDS011;30569;51.252;9.830;2023-08-30T00:58:37;4.10;;;2.25;;
44832;SDS011;30569;51.252;9.830;2023-08-30T01:01:03;5.93;;;2.22;;
44832;SDS011;30569;51.252;9.830;2023-08-30T01:03:33;3.35;;;1.90;;
44832;SDS011;30569;51.252;9.830;2023-08-30T01:05:59;4.57;;;2.22;;
44832;SDS011;30569;51.252;9.830;2023-08-30T01:08:24;5.78;;;2.30;;
44832;SDS011;30569;51.252;9.830;2023-08-30T01:13:21;5.00;;;2.22;;
44832;SDS011;30569;51.252;9.830;2023-08-30T01:15:48;4.47;;;2.40;;
44832;SDS011;30569;51.252;9.830;2023-08-30T01:18:19;5.38;;;2.17;;
44832;SDS011;30569;51.252;9.830;2023-08-30T01:20:47;6.75;;;2.13;;
44832;SDS011;30569;51.252;9.830;2023-08-30T01:28:38;4.57;;;2.00;;
44832;SDS011;30569;51.252;9.830;2023-08-30T01:31:05;6.25;;;2.15;;
44832;SDS011;30569;51.252;9.830;2023-08-30T01:33:34;4.22;;;2.17;;
44832;SDS011;30569;51.252;9.830;2023-08-30T01:36:01;3.78;;;2.20;;
44832;SDS011;30569;51.252;9.830;2023-08-30T01:38:29;5.90;;;2.30;;
44832;SDS011;30569;51.252;9.830;2023-08-30T01:40:57;5.90;;;2.08;;
44832;SDS011;30569;51.252;9.830;2023-08-30T01:43:25;7.68;;;2.17;;
44832;SDS011;30569;51.252;9.830;2023-08-30T01:45:53;4.13;;;2.10;;
44832;SDS011;30569;51.252;9.830;2023-08-30T01:48:21;6.65;;;2.58;;
44832;SDS011;30569;51.252;9.830;2023-08-30T01:50:47;5.60;;;2.50;;
44832;SDS011;30569;51.252;9.830;2023-08-30T01:53:13;5.32;;;2.22;;
44832;SDS011;30569;51.252;9.830;2023-08-30T01:55:40;4.35;;;2.10;;
44832;SDS011;30569;51.252;9.830;2023-08-30T01:58:07;7.30;;;2.35;;
44832;SDS011;30569;51.252;9.830;2023-08-30T02:00:33;4.40;;;2.40;;
44832;SDS011;30569;51.252;9.830;2023-08-30T02:03:06;6.25;;;2.10;;
44832;SDS011;30569;51.252;9.830;2023-08-30T02:05:36;5.30;;;2.20;;
44832;SDS011;30569;51.252;9.830;2023-08-30T02:08:05;8.55;;;2.47;;
44832;SDS011;30569;51.252;9.830;2023-08-30T02:10:44;4.80;;;2.40;;
44832;SDS011;30569;51.252;9.830;2023-08-30T02:13:16;9.07;;;2.50;;
44832;SDS011;30569;51.252;9.830;2023-08-30T02:15:44;5.25;;;2.28;;
44832;SDS011;30569;51.252;9.830;2023-08-30T02:18:11;4.65;;;2.08;;
44832;SDS011;30569;51.252;9.830;2023-08-30T02:20:37;4.10;;;2.03;;
44832;SDS011;30569;51.252;9.830;2023-08-30T02:23:03;4.57;;;2.28;;
44832;SDS011;30569;51.252;9.830;2023-08-30T02:25:28;5.63;;;2.65;;
44832;SDS011;30569;51.252;9.830;2023-08-30T02:27:54;5.28;;;2.40;;
44832;SDS011;30569;51.252;9.830;2023-08-30T02:30:19;4.63;;;2.60;;
44832;SDS011;30569;51.252;9.830;2023-08-30T02:32:45;5.50;;;2.60;;
44832;SDS011;30569;51.252;9.830;2023-08-30T02:35:10;4.63;;;2.50;;
44832;SDS011;30569;51.252;9.830;2023-08-30T02:37:36;4.63;;;2.65;;
44832;SDS011;30569;51.252;9.830;2023-08-30T02:40:02;4.57;;;2.50;;
44832;SDS011;30569;51.252;9.830;2023-08-30T02:42:27;7.60;;;2.47;;
44832;SDS011;30569;51.252;9.830;2023-08-30T02:44:53;5.53;;;2.40;;
44832;SDS011;30569;51.252;9.830;2023-08-30T02:47:19;5.80;;;2.47;;
44832;SDS011;30569;51.252;9.830;2023-08-30T02:49:44;4.22;;;2.15;;
44832;SDS011;30569;51.252;9.830;2023-08-30T02:52:10;8.10;;;2.10;;
44832;SDS011;30569;51.252;9.830;2023-08-30T02:54:35;5.95;;;2.05;;
44832;SDS011;30569;51.252;9.830;2023-08-30T02:57:01;3.80;;;2.08;;
44832;SDS011;30569;51.252;9.830;2023-08-30T02:59:27;4.95;;;2.45;;
44832;SDS011;30569;51.252;9.830;2023-08-30T03:01:52;7.88;;;2.40;;
44832;SDS011;30569;51.252;9.830;2023-08-30T03:04:19;5.30;;;2.60;;
44832;SDS011;30569;51.252;9.830;2023-08-30T03:06:44;4.40;;;2.10;;
44832;SDS011;30569;51.252;9.830;2023-08-30T03:09:10;4.80;;;2.47;;
44832;SDS011;30569;51.252;9.830;2023-08-30T03:11:36;7.07;;;2.05;;
44832;SDS011;30569;51.252;9.830;2023-08-30T03:14:02;6.05;;;2.50;;
44832;SDS011;30569;51.252;9.830;2023-08-30T03:16:28;4.25;;;2.30;;
44832;SDS011;30569;51.252;9.830;2023-08-30T03:18:54;5.30;;;2.60;;
44832;SDS011;30569;51.252;9.830;2023-08-30T03:21:19;6.63;;;2.13;;
44832;SDS011;30569;51.252;9.830;2023-08-30T03:23:45;5.07;;;2.50;;
44832;SDS011;30569;51.252;9.830;2023-08-30T03:26:11;4.22;;;2.42;;
44832;SDS011;30569;51.252;9.830;2023-08-30T03:28:37;4.50;;;2.70;;
44832;SDS011;30569;51.252;9.830;2023-08-30T03:33:38;10.57;;;2.47;;
44832;SDS011;30569;51.252;9.830;2023-08-30T03:36:06;4.65;;;2.55;;
44832;SDS011;30569;51.252;9.830;2023-08-30T03:38:33;4.63;;;2.40;;
44832;SDS011;30569;51.252;9.830;2023-08-30T03:40:58;7.47;;;2.60;;
44832;SDS011;30569;51.252;9.830;2023-08-30T03:43:24;5.90;;;2.70;;
44832;SDS011;30569;51.252;9.830;2023-08-30T03:45:49;5.82;;;2.30;;
44832;SDS011;30569;51.252;9.830;2023-08-30T03:48:15;4.93;;;2.83;;
44832;SDS011;30569;51.252;9.830;2023-08-30T03:50:40;5.10;;;2.83;;
44832;SDS011;30569;51.252;9.830;2023-08-30T03:53:06;9.27;;;2.58;;
44832;SDS011;30569;51.252;9.830;2023-08-30T03:55:31;5.63;;;3.20;;
44832;SDS011;30569;51.252;9.830;2023-08-30T03:57:59;4.75;;;2.78;;
44832;SDS011;30569;51.252;9.830;2023-08-30T04:00:24;6.07;;;3.20;;
44832;SDS011;30569;51.252;9.830;2023-08-30T04:02:50;4.95;;;3.33;;
44832;SDS011;30569;51.252;9.830;2023-08-30T04:05:15;7.22;;;2.70;;
44832;SDS011;30569;51.252;9.830;2023-08-30T04:07:41;4.50;;;2.60;;
44832;SDS011;30569;51.252;9.830;2023-08-30T04:10:06;5.00;;;2.85;;
44832;SDS011;30569;51.252;9.830;2023-08-30T04:12:33;6.43;;;2.40;;
44832;SDS011;30569;51.252;9.830;2023-08-30T04:14:59;4.85;;;2.38;;
44832;SDS011;30569;51.252;9.830;2023-08-30T04:17:26;4.93;;;2.63;;
44832;SDS011;30569;51.252;9.830;2023-08-30T04:19:52;6.82;;;2.80;;
44832;SDS011;30569;51.252;9.830;2023-08-30T04:22:18;5.40;;;2.72;;
44832;SDS011;30569;51.252;9.830;2023-08-30T04:24:44;5.80;;;2.80;;
44832;SDS011;30569;51.252;9.830;2023-08-30T04:27:10;5.75;;;2.58;;
44832;SDS011;30569;51.252;9.830;2023-08-30T04:29:36;4.97;;;2.55;;
44832;SDS011;30569;51.252;9.830;2023-08-30T04:32:01;4.95;;;2.30;;
44832;SDS011;30569;51.252;9.830;2023-08-30T04:34:27;5.22;;;3.05;;
44832;SDS011;30569;51.252;9.830;2023-08-30T04:36:52;6.22;;;2.67;;
44832;SDS011;30569;51.252;9.830;2023-08-30T04:39:18;5.25;;;2.78;;
44832;SDS011;30569;51.252;9.830;2023-08-30T04:41:44;4.80;;;2.83;;
44832;SDS011;30569;51.252;9.830;2023-08-30T04:44:09;6.43;;;3.38;;
44832;SDS011;30569;51.252;9.830;2023-08-30T04:46:35;5.45;;;3.50;;
44832;SDS011;30569;51.252;9.830;2023-08-30T04:49:00;6.53;;;3.20;;
44832;SDS011;30569;51.252;9.830;2023-08-30T04:51:26;5.72;;;3.13;;
44832;SDS011;30569;51.252;9.830;2023-08-30T04:53:51;6.70;;;3.75;;
44832;SDS011;30569;51.252;9.830;2023-08-30T04:56:17;8.48;;;3.95;;
44832;SDS011;30569;51.252;9.830;2023-08-30T04:58:43;7.90;;;4.70;;
44832;SDS011;30569;51.252;9.830;2023-08-30T05:01:09;8.30;;;4.75;;
44832;SDS011;30569;51.252;9.830;2023-08-30T05:03:36;10.80;;;6.05;;
44832;SDS011;30569;51.252;9.830;2023-08-30T05:06:01;10.30;;;5.82;;
44832;SDS011;30569;51.252;9.830;2023-08-30T05:08:27;7.35;;;4.85;;
44832;SDS011;30569;51.252;9.830;2023-08-30T05:10:53;7.30;;;4.57;;
44832;SDS011;30569;51.252;9.830;2023-08-30T05:13:19;7.93;;;4.97;;
44832;SDS011;30569;51.252;9.830;2023-08-30T05:15:45;9.88;;;4.68;;
44832;SDS011;30569;51.252;9.830;2023-08-30T05:18:11;8.38;;;5.00;;
44832;SDS011;30569;51.252;9.830;2023-08-30T05:20:36;11.88;;;5.63;;
44832;SDS011;30569;51.252;9.830;2023-08-30T05:23:02;8.88;;;5.40;;
44832;SDS011;30569;51.252;9.830;2023-08-30T05:25:27;11.55;;;6.50;;
44832;SDS011;30569;51.252;9.830;2023-08-30T05:27:53;10.00;;;6.03;;
44832;SDS011;30569;51.252;9.830;2023-08-30T05:30:19;10.30;;;7.28;;
44832;SDS011;30569;51.252;9.830;2023-08-30T05:32:45;9.05;;;6.40;;
44832;SDS011;30569;51.252;9.830;2023-08-30T05:35:10;11.73;;;7.45;;
44832;SDS011;30569;51.252;9.830;2023-08-30T05:37:36;12.07;;;7.20;;
44832;SDS011;30569;51.252;9.830;2023-08-30T05:40:02;13.13;;;8.13;;
44832;SDS011;30569;51.252;9.830;2023-08-30T05:42:29;10.52;;;7.45;;
44832;SDS011;30569;51.252;9.830;2023-08-30T05:44:54;11.13;;;7.70;;
44832;SDS011;30569;51.252;9.830;2023-08-30T05:47:20;10.45;;;7.65;;
44832;SDS011;30569;51.252;9.830;2023-08-30T05:49:46;10.15;;;7.30;;
44832;SDS011;30569;51.252;9.830;2023-08-30T05:52:14;10.05;;;7.25;;
44832;SDS011;30569;51.252;9.830;2023-08-30T05:54:41;10.88;;;7.40;;
44832;SDS011;30569;51.252;9.830;2023-08-30T05:57:07;11.38;;;7.80;;
44832;SDS011;30569;51.252;9.830;2023-08-30T05:59:33;11.30;;;7.50;;
44832;SDS011;30569;51.252;9.830;2023-08-30T06:02:00;12.18;;;7.50;;
44832;SDS011;30569;51.252;9.830;2023-08-30T06:04:26;10.10;;;7.55;;
44832;SDS011;30569;51.252;9.830;2023-08-30T06:06:52;11.38;;;7.03;;
44832;SDS011;30569;51.252;9.830;2023-08-30T06:09:18;10.45;;;7.20;;
44832;SDS011;30569;51.252;9.830;2023-08-30T06:11:44;10.00;;;6.90;;
44832;SDS011;30569;51.252;9.830;2023-08-30T06:14:09;9.25;;;6.70;;
44832;SDS011;30569;51.252;9.830;2023-08-30T06:16:35;10.73;;;7.07;;
44832;SDS011;30569;51.252;9.830;2023-08-30T06:19:01;10.10;;;6.28;;
44832;SDS011;30569;51.252;9.830;2023-08-30T06:21:27;11.32;;;7.28;;
44832;SDS011;30569;51.252;9.830;2023-08-30T06:23:53;12.57;;;8.20;;
44832;SDS011;30569;51.252;9.830;2023-08-30T06:26:18;11.77;;;8.27;;
44832;SDS011;30569;51.252;9.830;2023-08-30T06:28:45;11.35;;;8.32;;
44832;SDS011;30569;51.252;9.830;2023-08-30T06:31:10;13.95;;;8.20;;
44832;SDS011;30569;51.252;9.830;2023-08-30T06:33:36;11.23;;;8.48;;
44832;SDS011;30569;51.252;9.830;2023-08-30T06:36:05;13.95;;;7.45;;
44832;SDS011;30569;51.252;9.830;2023-08-30T06:38:30;13.95;;;8.50;;
44832;SDS011;30569;51.252;9.830;2023-08-30T06:40:59;13.43;;;7.57;;
44832;SDS011;30569;51.252;9.830;2023-08-30T06:43:25;10.13;;;6.90;;
44832;SDS011;30569;51.252;9.830;2023-08-30T06:45:51;9.52;;;6.22;;
44832;SDS011;30569;51.252;9.830;2023-08-30T06:48:18;8.65;;;6.05;;
44832;SDS011;30569;51.252;9.830;2023-08-30T06:50:44;8.68;;;5.70;;
44832;SDS011;30569;51.252;9.830;2023-08-30T06:53:10;8.30;;;5.10;;
44832;SDS011;30569;51.252;9.830;2023-08-30T06:55:36;11.38;;;5.82;;
44832;SDS011;30569;51.252;9.830;2023-08-30T06:58:02;11.65;;;5.40;;
44832;SDS011;30569;51.252;9.830;2023-08-30T07:00:28;10.27;;;5.85;;
44832;SDS011;30569;51.252;9.830;2023-08-30T07:02:54;12.43;;;5.15;;
44832;SDS011;30569;51.252;9.830;2023-08-30T07:05:20;7.82;;;4.90;;
44832;SDS011;30569;51.252;9.830;2023-08-30T07:07:46;8.13;;;5.22;;
44832;SDS011;30569;51.252;9.830;2023-08-30T07:10:11;7.80;;;4.90;;
44832;SDS011;30569;51.252;9.830;2023-08-30T07:12:37;9.98;;;4.97;;
44832;SDS011;30569;51.252;9.830;2023-08-30T07:15:03;7.53;;;4.50;;
44832;SDS011;30569;51.252;9.830;2023-08-30T07:17:29;8.68;;;4.88;;
44832;SDS011;30569;51.252;9.830;2023-08-30T07:19:55;8.60;;;4.97;;
44832;SDS011;30569;51.252;9.830;2023-08-30T07:22:21;8.48;;;4.85;;
44832;SDS011;30569;51.252;9.830;2023-08-30T07:24:47;8.43;;;4.93;;
44832;SDS011;30569;51.252;9.830;2023-08-30T07:27:13;8.45;;;4.28;;
44832;SDS011;30569;51.252;9.830;2023-08-30T07:29:39;6.70;;;4.13;;
44832;SDS011;30569;51.252;9.830;2023-08-30T07:32:05;8.52;;;4.65;;
44832;SDS011;30569;51.252;9.830;2023-08-30T07:34:31;9.43;;;4.65;;
44832;SDS011;30569;51.252;9.830;2023-08-30T07:36:57;8.52;;;4.40;;
44832;SDS011;30569;51.252;9.830;2023-08-30T07:39:23;8.95;;;4.88;;
44832;SDS011;30569;51.252;9.830;2023-08-30T07:41:49;8.32;;;4.50;;
44832;SDS011;30569;51.252;9.830;2023-08-30T07:44:14;7.18;;;4.72;;
44832;SDS011;30569;51.252;9.830;2023-08-30T07:46:41;8.57;;;5.00;;
44832;SDS011;30569;51.252;9.830;2023-08-30T07:49:07;8.30;;;5.00;;
44832;SDS011;30569;51.252;9.830;2023-08-30T07:51:32;9.15;;;5.53;;
44832;SDS011;30569;51.252;9.830;2023-08-30T07:53:58;11.10;;;5.35;;
44832;SDS011;30569;51.252;9.830;2023-08-30T07:56:24;7.00;;;4.18;;
44832;SDS011;30569;51.252;9.830;2023-08-30T07:58:50;8.32;;;4.80;;
44832;SDS011;30569;51.252;9.830;2023-08-30T08:01:16;6.88;;;4.72;;
44832;SDS011;30569;51.252;9.830;2023-08-30T08:03:41;9.00;;;4.82;;
44832;SDS011;30569;51.252;9.830;2023-08-30T08:06:07;12.07;;;5.28;;
44832;SDS011;30569;51.252;9.830;2023-08-30T08:08:33;8.38;;;4.68;;
44832;SDS011;30569;51.252;9.830;2023-08-30T08:10:59;8.07;;;4.32;;
44832;SDS011;30569;51.252;9.830;2023-08-30T08:13:25;9.48;;;4.95;;
44832;SDS011;30569;51.252;9.830;2023-08-30T08:15:51;9.18;;;5.15;;
44832;SDS011;30569;51.252;9.830;2023-08-30T08:18:17;7.63;;;4.10;;
44832;SDS011;30569;51.252;9.830;2023-08-30T08:20:43;9.32;;;4.28;;
44832;SDS011;30569;51.252;9.830;2023-08-30T08:23:09;7.10;;;5.28;;
44832;SDS011;30569;51.252;9.830;2023-08-30T08:25:34;12.00;;;8.05;;
44832;SDS011;30569;51.252;9.830;2023-08-30T08:28:00;16.30;;;12.25;;
44832;SDS011;30569;51.252;9.830;2023-08-30T08:30:25;13.23;;;9.02;;
44832;SDS011;30569;51.252;9.830;2023-08-30T08:32:51;9.48;;;6.72;;
44832;SDS011;30569;51.252;9.830;2023-08-30T08:35:17;9.05;;;5.32;;
44832;SDS011;30569;51.252;9.830;2023-08-30T08:37:43;10.50;;;8.25;;
44832;SDS011;30569;51.252;9.830;2023-08-30T08:40:09;9.18;;;6.78;;
44832;SDS011;30569;51.252;9.830;2023-08-30T08:42:35;8.90;;;4.47;;
44832;SDS011;30569;51.252;9.830;2023-08-30T08:45:02;9.77;;;4.95;;
44832;SDS011;30569;51.252;9.830;2023-08-30T08:47:32;8.18;;;4.47;;
44832;SDS011;30569;51.252;9.830;2023-08-30T08:49:58;8.23;;;4.50;;
44832;SDS011;30569;51.252;9.830;2023-08-30T08:52:28;6.80;;;3.72;;
44832;SDS011;30569;51.252;9.830;2023-08-30T08:54:54;5.65;;;3.63;;
44832;SDS011;30569;51.252;9.830;2023-08-30T08:57:20;9.30;;;4.03;;
44832;SDS011;30569;51.252;9.830;2023-08-30T08:59:46;7.88;;;4.22;;
44832;SDS011;30569;51.252;9.830;2023-08-30T09:02:12;9.55;;;4.82;;
44832;SDS011;30569;51.252;9.830;2023-08-30T09:04:39;6.97;;;4.88;;
44832;SDS011;30569;51.252;9.830;2023-08-30T09:07:05;7.63;;;5.40;;
44832;SDS011;30569;51.252;9.830;2023-08-30T09:09:32;8.80;;;5.30;;
44832;SDS011;30569;51.252;9.830;2023-08-30T09:11:58;10.57;;;5.13;;
44832;SDS011;30569;51.252;9.830;2023-08-30T09:14:24;8.48;;;5.68;;
44832;SDS011;30569;51.252;9.830;2023-08-30T09:16:59;9.65;;;4.88;;
44832;SDS011;30569;51.252;9.830;2023-08-30T09:19:26;7.72;;;5.55;;
44832;SDS011;30569;51.252;9.830;2023-08-30T09:21:52;8.40;;;5.75;;
44832;SDS011;30569;51.252;9.830;2023-08-30T09:24:18;9.00;;;5.63;;
44832;SDS011;30569;51.252;9.830;2023-08-30T09:26:48;9.27;;;5.97;;
44832;SDS011;30569;51.252;9.830;2023-08-30T09:29:16;7.85;;;5.75;;
44832;SDS011;30569;51.252;9.830;2023-08-30T09:31:43;9.55;;;6.47;;
44832;SDS011;30569;51.252;9.830;2023-08-30T09:34:09;10.48;;;6.85;;
44832;SDS011;30569;51.252;9.830;2023-08-30T09:36:38;9.52;;;6.75;;
44832;SDS011;30569;51.252;9.830;2023-08-30T09:39:07;10.93;;;7.32;;
44832;SDS011;30569;51.252;9.830;2023-08-30T09:41:43;10.63;;;7.10;;
44832;SDS011;30569;51.252;9.830;2023-08-30T09:44:11;11.32;;;7.60;;
44832;SDS011;30569;51.252;9.830;2023-08-30T09:46:53;10.75;;;6.68;;
44832;SDS011;30569;51.252;9.830;2023-08-30T09:49:20;10.20;;;6.53;;
44832;SDS011;30569;51.252;9.830;2023-08-30T09:51:47;9.85;;;6.60;;
44832;SDS011;30569;51.252;9.830;2023-08-30T09:54:17;8.95;;;6.47;;
44832;SDS011;30569;51.252;9.830;2023-08-30T09:56:48;12.80;;;7.20;;
44832;SDS011;30569;51.252;9.830;2023-08-30T09:59:17;10.80;;;6.32;;
44832;SDS011;30569;51.252;9.830;2023-08-30T10:01:43;11.07;;;7.22;;
44832;SDS011;30569;51.252;9.830;2023-08-30T10:04:10;13.57;;;7.10;;
44832;SDS011;30569;51.252;9.830;2023-08-30T10:06:39;10.95;;;7.57;;
44832;SDS011;30569;51.252;9.830;2023-08-30T10:09:05;13.13;;;7.07;;
44832;SDS011;30569;51.252;9.830;2023-08-30T10:11:33;10.57;;;6.47;;
44832;SDS011;30569;51.252;9.830;2023-08-30T10:14:00;13.02;;;7.45;;
44832;SDS011;30569;51.252;9.830;2023-08-30T10:16:39;10.63;;;7.30;;
44832;SDS011;30569;51.252;9.830;2023-08-30T10:19:10;10.48;;;6.80;;
44832;SDS011;30569;51.252;9.830;2023-08-30T10:21:40;10.98;;;7.30;;
44832;SDS011;30569;51.252;9.830;2023-08-30T10:24:07;11.05;;;7.43;;
44832;SDS011;30569;51.252;9.830;2023-08-30T10:26:36;9.98;;;7.25;;
44832;SDS011;30569;51.252;9.830;2023-08-30T10:29:04;12.82;;;7.85;;
44832;SDS011;30569;51.252;9.830;2023-08-30T10:31:32;11.82;;;7.38;;
44832;SDS011;30569;51.252;9.830;2023-08-30T10:33:58;9.85;;;7.80;;
44832;SDS011;30569;51.252;9.830;2023-08-30T10:36:25;12.75;;;7.28;;
44832;SDS011;30569;51.252;9.830;2023-08-30T10:38:54;11.00;;;7.45;;
44832;SDS011;30569;51.252;9.830;2023-08-30T10:41:20;11.70;;;7.93;;
44832;SDS011;30569;51.252;9.830;2023-08-30T10:43:51;10.38;;;7.90;;
44832;SDS011;30569;51.252;9.830;2023-08-30T10:46:28;10.32;;;7.25;;
44832;SDS011;30569;51.252;9.830;2023-08-30T10:49:08;11.77;;;7.68;;
44832;SDS011;30569;51.252;9.830;2023-08-30T10:51:39;9.32;;;6.43;;
44832;SDS011;30569;51.252;9.830;2023-08-30T10:54:15;13.20;;;8.13;;
44832;SDS011;30569;51.252;9.830;2023-08-30T10:56:45;10.10;;;7.20;;
44832;SDS011;30569;51.252;9.830;2023-08-30T11:01:47;11.35;;;7.25;;
44832;SDS011;30569;51.252;9.830;2023-08-30T11:04:14;12.95;;;7.68;;
44832;SDS011;30569;51.252;9.830;2023-08-30T11:06:45;12.05;;;6.50;;
44832;SDS011;30569;51.252;9.830;2023-08-30T11:09:15;13.00;;;8.10;;
44832;SDS011;30569;51.252;9.830;2023-08-30T11:11:46;11.13;;;7.43;;
44832;SDS011;30569;51.252;9.830;2023-08-30T11:14:13;10.45;;;7.05;;
44832;SDS011;30569;51.252;9.830;2023-08-30T11:16:39;10.38;;;6.97;;
44832;SDS011;30569;51.252;9.830;2023-08-30T11:19:05;8.93;;;6.53;;
44832;SDS011;30569;51.252;9.830;2023-08-30T11:21:33;10.98;;;7.05;;
44832;SDS011;30569;51.252;9.830;2023-08-30T11:24:00;8.63;;;5.88;;
44832;SDS011;30569;51.252;9.830;2023-08-30T11:26:26;10.07;;;6.32;;
44832;SDS011;30569;51.252;9.830;2023-08-30T11:28:52;9.35;;;6.55;;
44832;SDS011;30569;51.252;9.830;2023-08-30T11:33:51;10.32;;;6.03;;
44832;SDS011;30569;51.252;9.830;2023-08-30T11:36:25;10.43;;;5.60;;
44832;SDS011;30569;51.252;9.830;2023-08-30T11:38:52;9.75;;;5.47;;
44832;SDS011;30569;51.252;9.830;2023-08-30T11:41:21;6.47;;;4.57;;
44832;SDS011;30569;51.252;9.830;2023-08-30T11:43:48;7.50;;;4.32;;
44832;SDS011;30569;51.252;9.830;2023-08-30T11:46:15;6.18;;;3.92;;
44832;SDS011;30569;51.252;9.830;2023-08-30T11:48:41;7.88;;;4.75;;
44832;SDS011;30569;51.252;9.830;2023-08-30T11:51:08;7.43;;;4.03;;
44832;SDS011;30569;51.252;9.830;2023-08-30T11:53:34;10.00;;;4.22;;
44832;SDS011;30569;51.252;9.830;2023-08-30T11:56:00;9.73;;;4.10;;
44832;SDS011;30569;51.252;9.830;2023-08-30T11:58:26;7.22;;;3.58;;
44832;SDS011;30569;51.252;9.830;2023-08-30T12:00:52;6.57;;;3.45;;
44832;SDS011;30569;51.252;9.830;2023-08-30T12:03:22;5.63;;;3.00;;
44832;SDS011;30569;51.252;9.830;2023-08-30T12:05:48;5.38;;;3.30;;
44832;SDS011;30569;51.252;9.830;2023-08-30T12:08:19;6.38;;;3.30;;
44832;SDS011;30569;51.252;9.830;2023-08-30T12:10:51;5.47;;;3.13;;
44832;SDS011;30569;51.252;9.830;2023-08-30T12:15:49;6.78;;;2.92;;
44832;SDS011;30569;51.252;9.830;2023-08-30T12:18:15;7.18;;;3.08;;
44832;SDS011;30569;51.252;9.830;2023-08-30T12:20:51;6.07;;;2.60;;
44832;SDS011;30569;51.252;9.830;2023-08-30T12:23:28;5.75;;;2.95;;
44832;SDS011;30569;51.252;9.830;2023-08-30T12:28:29;7.80;;;3.15;;
44832;SDS011;30569;51.252;9.830;2023-08-30T12:30:56;5.00;;;2.80;;
44832;SDS011;30569;51.252;9.830;2023-08-30T12:33:22;6.03;;;2.78;;
44832;SDS011;30569;51.252;9.830;2023-08-30T12:35:50;6.95;;;2.60;;
44832;SDS011;30569;51.252;9.830;2023-08-30T12:38:19;5.72;;;3.10;;
44832;SDS011;30569;51.252;9.830;2023-08-30T12:40:45;6.47;;;2.83;;
44832;SDS011;30569;51.252;9.830;2023-08-30T12:43:12;7.85;;;3.30;;
44832;SDS011;30569;51.252;9.830;2023-08-30T12:45:39;7.90;;;3.20;;
44832;SDS011;30569;51.252;9.830;2023-08-30T12:48:06;5.10;;;2.80;;
44832;SDS011;30569;51.252;9.830;2023-08-30T12:50:38;10.93;;;3.22;;
44832;SDS011;30569;51.252;9.830;2023-08-30T12:53:04;4.88;;;2.78;;
44832;SDS011;30569;51.252;9.830;2023-08-30T12:55:30;8.50;;;3.03;;
44832;SDS011;30569;51.252;9.830;2023-08-30T12:57:56;5.63;;;2.97;;
44832;SDS011;30569;51.252;9.830;2023-08-30T13:00:22;6.53;;;3.05;;
44832;SDS011;30569;51.252;9.830;2023-08-30T13:02:48;6.63;;;2.90;;
44832;SDS011;30569;51.252;9.830;2023-08-30T13:05:13;6.40;;;3.78;;
44832;SDS011;30569;51.252;9.830;2023-08-30T13:07:39;5.47;;;2.63;;
44832;SDS011;30569;51.252;9.830;2023-08-30T13:10:05;7.75;;;2.95;;
44832;SDS011;30569;51.252;9.830;2023-08-30T13:12:32;6.15;;;2.63;;
44832;SDS011;30569;51.252;9.830;2023-08-30T13:14:58;5.88;;;2.70;;
44832;SDS011;30569;51.252;9.830;2023-08-30T13:17:24;5.53;;;2.80;;
44832;SDS011;30569;51.252;9.830;2023-08-30T13:19:49;6.38;;;2.90;;
44832;SDS011;30569;51.252;9.830;2023-08-30T13:22:17;8.65;;;2.80;;
44832;SDS011;30569;51.252;9.830;2023-08-30T13:24:43;5.07;;;2.80;;
44832;SDS011;30569;51.252;9.830;2023-08-30T13:27:12;5.88;;;3.17;;
44832;SDS011;30569;51.252;9.830;2023-08-30T13:29:38;6.28;;;2.80;;
44832;SDS011;30569;51.252;9.830;2023-08-30T13:32:03;6.00;;;2.70;;
44832;SDS011;30569;51.252;9.830;2023-08-30T13:34:29;5.20;;;2.72;;
44832;SDS011;30569;51.252;9.830;2023-08-30T13:36:55;4.40;;;2.38;;
44832;SDS011;30569;51.252;9.830;2023-08-30T13:39:27;5.35;;;2.70;;
44832;SDS011;30569;51.252;9.830;2023-08-30T13:41:52;5.75;;;3.08;;
44832;SDS011;30569;51.252;9.830;2023-08-30T13:44:18;6.78;;;2.88;;
44832;SDS011;30569;51.252;9.830;2023-08-30T13:46:43;5.88;;;3.05;;
44832;SDS011;30569;51.252;9.830;2023-08-30T13:49:11;6.13;;;3.10;;
44832;SDS011;30569;51.252;9.830;2023-08-30T13:51:37;6.93;;;3.00;;
44832;SDS011;30569;51.252;9.830;2023-08-30T13:54:03;5.80;;;3.08;;
44832;SDS011;30569;51.252;9.830;2023-08-30T13:56:29;5.03;;;2.70;;
44832;SDS011;30569;51.252;9.830;2023-08-30T13:58:55;7.75;;;4.05;;
44832;SDS011;30569;51.252;9.830;2023-08-30T14:01:21;33.35;;;11.35;;
44832;SDS011;30569;51.252;9.830;2023-08-30T14:03:47;14.07;;;5.88;;
44832;SDS011;30569;51.252;9.830;2023-08-30T14:06:12;10.20;;;4.20;;
44832;SDS011;30569;51.252;9.830;2023-08-30T14:08:38;6.68;;;3.05;;
44832;SDS011;30569;51.252;9.830;2023-08-30T14:11:03;6.20;;;3.60;;
44832;SDS011;30569;51.252;9.830;2023-08-30T14:13:29;5.70;;;3.38;;
44832;SDS011;30569;51.252;9.830;2023-08-30T14:15:58;5.50;;;3.53;;
44832;SDS011;30569;51.252;9.830;2023-08-30T14:18:24;7.25;;;3.10;;
44832;SDS011;30569;51.252;9.830;2023-08-30T14:20:50;6.88;;;3.30;;
44832;SDS011;30569;51.252;9.830;2023-08-30T14:23:16;7.10;;;3.60;;
44832;SDS011;30569;51.252;9.830;2023-08-30T14:25:41;9.85;;;3.75;;
44832;SDS011;30569;51.252;9.830;2023-08-30T14:28:07;6.95;;;3.58;;
44832;SDS011;30569;51.252;9.830;2023-08-30T14:30:32;5.28;;;2.92;;
44832;SDS011;30569;51.252;9.830;2023-08-30T14:32:58;7.05;;;3.47;;
44832;SDS011;30569;51.252;9.830;2023-08-30T14:35:24;8.05;;;3.30;;
44832;SDS011;30569;51.252;9.830;2023-08-30T14:37:50;5.50;;;2.72;;
44832;SDS011;30569;51.252;9.830;2023-08-30T14:40:16;6.15;;;3.10;;
44832;SDS011;30569;51.252;9.830;2023-08-30T14:42:42;5.28;;;2.72;;
44832;SDS011;30569;51.252;9.830;2023-08-30T14:45:07;5.57;;;2.60;;
44832;SDS011;30569;51.252;9.830;2023-08-30T14:47:33;5.55;;;2.67;;
44832;SDS011;30569;51.252;9.830;2023-08-30T14:49:59;5.13;;;2.80;;
44832;SDS011;30569;51.252;9.830;2023-08-30T14:52:27;5.53;;;2.83;;
44832;SDS011;30569;51.252;9.830;2023-08-30T14:54:53;7.20;;;3.28;;
44832;SDS011;30569;51.252;9.830;2023-08-30T14:57:19;8.48;;;3.10;;
44832;SDS011;30569;51.252;9.830;2023-08-30T14:59:44;6.68;;;3.47;;